Time;durP1;ratioP1;P1;durP2;ratioP2;P2;SDS_P1;SDS_P2;PMS_P1;PMS_P2;Temp;Humidity;BMP_temperature;BMP_pressure;BME280_temperature;BME280_humidity;BME280_pressure;Samples;Min_cycle;Max_cycle;Signal;HPM_P1;HPM_P2
2022/11/10 00:02:02;;;;;;;16.17;4.05;;;;;;;9.45;100.00;101771.50;7294131;19;20014;-79
2022/11/10 00:04:32;;;;;;;12.32;4.00;;;;;;;9.44;100.00;101784.53;7290853;19;20430;-78
2022/11/10 00:07:02;;;;;;;13.35;4.82;;;;;;;9.46;100.00;101793.31;7288897;19;20019;-78
2022/11/10 00:09:34;;;;;;;16.48;4.13;;;;;;;9.47;100.00;101790.75;7300653;19;20291;-78
2022/11/10 00:12:04;;;;;;;13.13;4.75;;;;;;;9.39;100.00;101784.38;7293437;19;20683;-79
2022/11/10 00:17:18;;;;;;;14.90;4.53;;;;;;;9.32;100.00;101794.63;7289686;19;20487;-79
2022/11/10 00:19:48;;;;;;;15.38;4.15;;;;;;;9.33;100.00;101793.78;7293457;19;20299;-79
2022/11/10 00:22:17;;;;;;;14.50;4.03;;;;;;;9.35;100.00;101797.34;7292733;19;20026;-78
2022/11/10 00:24:47;;;;;;;12.05;4.40;;;;;;;9.30;100.00;101797.19;7288355;19;20303;-77
2022/11/10 00:27:17;;;;;;;13.77;4.43;;;;;;;9.33;100.00;101799.91;7286159;19;20040;-76
2022/11/10 00:29:47;;;;;;;13.77;4.18;;;;;;;9.36;100.00;101792.13;7292325;19;20191;-75
2022/11/10 00:32:19;;;;;;;18.15;5.05;;;;;;;9.39;100.00;101792.22;7299086;19;20191;-75
2022/11/10 00:34:49;;;;;;;15.65;4.88;;;;;;;9.37;100.00;101801.75;7285658;19;20346;-74
2022/11/10 00:37:19;;;;;;;19.23;5.07;;;;;;;9.33;100.00;101796.41;7288967;19;20188;-77
2022/11/10 00:39:49;;;;;;;13.68;4.32;;;;;;;9.36;100.00;101796.50;7288697;19;20011;-76
2022/11/10 00:42:19;;;;;;;19.38;5.10;;;;;;;9.42;100.00;101788.81;7287825;19;20311;-76
2022/11/10 00:44:48;;;;;;;17.20;5.32;;;;;;;9.45;100.00;101792.44;7288946;19;20196;-74
2022/11/10 00:47:21;;;;;;;14.48;4.40;;;;;;;9.48;100.00;101795.16;7284228;19;20641;-77
2022/11/10 00:49:50;;;;;;;10.50;4.25;;;;;;;9.47;100.00;101811.69;7296574;19;20379;-73
2022/11/10 00:52:20;;;;;;;17.52;4.85;;;;;;;9.48;100.00;101797.78;7288475;19;20209;-76
2022/11/10 00:54:50;;;;;;;17.58;4.28;;;;;;;9.49;100.00;101815.25;7284882;19;20267;-76
2022/11/10 00:57:19;;;;;;;16.90;4.63;;;;;;;9.55;100.00;101805.81;7285731;19;20387;-76
2022/11/10 00:59:49;;;;;;;22.33;5.65;;;;;;;9.59;100.00;101812.94;7291948;19;20007;-74
2022/11/10 01:02:21;;;;;;;11.77;4.50;;;;;;;9.68;100.00;101808.00;7292543;19;20234;-74
2022/11/10 01:04:51;;;;;;;11.68;4.13;;;;;;;9.75;100.00;101812.59;7290723;19;20184;-74
2022/11/10 01:07:20;;;;;;;15.88;4.32;;;;;;;9.78;100.00;101807.47;7284778;19;20625;-74
2022/11/10 01:09:50;;;;;;;19.90;4.65;;;;;;;9.77;100.00;101810.91;7292626;19;20196;-74
2022/11/10 01:12:20;;;;;;;17.25;4.50;;;;;;;9.75;100.00;101815.22;7290928;19;20412;-75
2022/11/10 01:14:50;;;;;;;15.20;4.00;;;;;;;9.72;100.00;101807.25;7282478;19;20474;-76
2022/11/10 01:17:22;;;;;;;19.73;4.57;;;;;;;9.66;100.00;101817.53;7283195;19;20025;-77
2022/11/10 01:19:52;;;;;;;16.83;3.83;;;;;;;9.70;100.00;101817.69;7291694;19;20434;-76
2022/11/10 01:22:21;;;;;;;11.50;3.65;;;;;;;9.66;100.00;101830.63;7294008;19;20219;-74
2022/11/10 01:24:51;;;;;;;15.02;4.10;;;;;;;9.61;100.00;101832.22;7287256;19;20022;-76
2022/11/10 01:27:21;;;;;;;15.18;4.13;;;;;;;9.59;100.00;101828.66;7286128;19;20231;-76
2022/11/10 01:29:51;;;;;;;17.60;4.30;;;;;;;9.56;100.00;101825.94;7287842;19;20021;-75
2022/11/10 01:32:23;;;;;;;11.20;3.85;;;;;;;9.56;100.00;101831.19;7287574;19;20280;-75
2022/11/10 01:34:53;;;;;;;7.82;3.42;;;;;;;9.55;100.00;101837.25;7286429;19;20480;-74
2022/11/10 01:37:22;;;;;;;20.50;5.03;;;;;;;9.67;100.00;101829.81;7282607;19;20449;-74
2022/11/10 01:39:52;;;;;;;17.02;4.15;;;;;;;9.61;100.00;101835.72;7289859;19;20290;-73
2022/11/10 01:42:27;;;;;;;14.27;4.07;;;;;;;9.65;100.00;101826.25;7286581;19;20443;-74
2022/11/10 01:45:26;;;;;;;17.23;5.05;;;;;;;9.66;100.00;101820.16;7285394;19;20193;-76
2022/11/10 01:48:03;;;;;;;15.88;4.40;;;;;;;9.60;100.00;101833.06;7288337;19;20025;-74
2022/11/10 01:50:37;;;;;;;14.90;5.55;;;;;;;9.61;100.00;101830.50;7290465;19;20290;-74
2022/11/10 01:53:09;;;;;;;;;;;;;;;9.63;100.00;101838.41;7288876;19;20382;-74
2022/11/10 01:55:43;;;;;;;14.38;4.82;;;;;;;9.57;100.00;101839.09;7287940;19;20557;-74
2022/11/10 01:58:16;;;;;;;16.58;3.88;;;;;;;9.58;100.00;101848.72;7288459;19;20329;-74
2022/11/10 02:00:46;;;;;;;12.90;4.33;;;;;;;9.53;100.00;101855.53;7299437;19;20011;-74
2022/11/10 02:03:25;;;;;;;11.55;3.45;;;;;;;9.58;100.00;101860.94;7296612;19;20195;-77
2022/11/10 02:05:56;;;;;;;12.32;3.50;;;;;;;9.60;100.00;101867.09;7293259;19;20195;-77
2022/11/10 02:08:27;;;;;;;16.67;3.65;;;;;;;9.50;100.00;101874.66;7292247;19;20845;-77
2022/11/10 02:10:57;;;;;;;7.82;2.83;;;;;;;9.46;100.00;101874.50;7292944;19;20018;-77
2022/11/10 02:13:27;;;;;;;19.13;3.33;;;;;;;9.35;100.00;101879.41;7291919;19;20206;-76
2022/11/10 02:15:57;;;;;;;11.90;3.80;;;;;;;9.33;100.00;101880.19;7292994;19;20283;-76
2022/11/10 02:18:29;;;;;;;12.40;4.35;;;;;;;9.33;100.00;101886.31;7288452;19;20287;-76
2022/11/10 02:21:05;;;;;;;11.80;4.15;;;;;;;9.29;100.00;101889.66;7291370;19;20086;-76
2022/11/10 02:23:50;;;;;;;16.05;4.45;;;;;;;9.23;100.00;101885.94;7291069;19;20017;-77
2022/11/10 02:26:25;;;;;;;16.88;4.20;;;;;;;9.25;100.00;101894.72;7289883;19;20094;-76
2022/11/10 02:28:55;;;;;;;15.45;4.47;;;;;;;9.18;100.00;101901.47;7288251;19;20240;-77
2022/11/10 02:31:25;;;;;;;16.20;4.60;;;;;;;9.14;100.00;101904.81;7292664;19;20010;-77
2022/11/10 02:33:54;;;;;;;13.77;4.43;;;;;;;9.10;100.00;101903.81;7292344;19;20024;-77
2022/11/10 02:36:27;;;;;;;21.83;4.93;;;;;;;9.05;100.00;101912.31;7285076;19;20033;-77
2022/11/10 02:38:57;;;;;;;22.13;4.32;;;;;;;9.00;100.00;101908.66;7284154;19;20244;-76
2022/11/10 02:41:27;;;;;;;15.48;3.90;;;;;;;8.93;100.00;101909.25;7295813;19;20078;-77
2022/11/10 02:43:58;;;;;;;13.30;3.70;;;;;;;8.90;100.00;101915.28;7295227;19;20211;-77
2022/11/10 02:46:28;;;;;;;17.83;4.28;;;;;;;8.87;100.00;101919.50;7290797;19;20018;-77
2022/11/10 02:48:58;;;;;;;15.68;3.97;;;;;;;8.83;100.00;101923.72;7289050;19;20639;-77
2022/11/10 02:51:30;;;;;;;16.27;3.45;;;;;;;8.83;100.00;101918.50;7291944;19;20289;-76
2022/11/10 02:54:00;;;;;;;18.08;4.45;;;;;;;8.81;100.00;101921.06;7286507;19;20188;-77
2022/11/10 02:56:30;;;;;;;11.75;3.63;;;;;;;8.80;100.00;101934.06;7285709;19;20384;-76
2022/11/10 02:59:00;;;;;;;17.02;4.00;;;;;;;8.72;100.00;101935.50;7285590;19;20181;-76
2022/11/10 03:01:30;;;;;;;12.68;4.45;;;;;;;8.67;100.00;101932.72;7286393;19;20021;-76
2022/11/10 03:03:59;;;;;;;17.05;3.78;;;;;;;8.63;100.00;101938.66;7290356;19;20019;-77
2022/11/10 03:06:32;;;;;;;12.38;3.03;;;;;;;8.61;100.00;101937.72;7285281;19;20194;-77
2022/11/10 03:09:02;;;;;;;13.73;3.33;;;;;;;8.59;100.00;101942.00;7284883;19;20339;-77
2022/11/10 03:11:32;;;;;;;15.55;3.83;;;;;;;8.60;100.00;101949.00;7289580;19;20438;-76
2022/11/10 03:14:01;;;;;;;10.70;3.10;;;;;;;8.51;100.00;101946.03;7288966;19;20018;-77
2022/11/10 03:16:31;;;;;;;13.30;3.45;;;;;;;8.47;100.00;101946.75;7283130;19;20302;-77
2022/11/10 03:19:01;;;;;;;26.48;4.03;;;;;;;8.48;100.00;101954.63;7281469;19;20284;-75
2022/11/10 03:21:33;;;;;;;18.83;4.38;;;;;;;8.51;100.00;101944.31;7287036;19;20195;-77
2022/11/10 03:24:03;;;;;;;10.70;3.60;;;;;;;8.54;100.00;101946.16;7288239;19;20550;-75
2022/11/10 03:26:32;;;;;;;14.75;3.65;;;;;;;8.49;100.00;101951.19;7288487;19;20296;-77
2022/11/10 03:29:02;;;;;;;11.15;2.97;;;;;;;8.59;100.00;101955.06;7284952;19;20291;-77
2022/11/10 03:31:32;;;;;;;18.00;3.25;;;;;;;8.60;100.00;101950.72;7292488;19;20524;-75
2022/11/10 03:34:02;;;;;;;15.23;3.05;;;;;;;8.61;100.00;101953.41;7293789;19;20018;-77
2022/11/10 03:36:34;;;;;;;13.40;3.55;;;;;;;8.62;100.00;101963.03;7290427;19;20018;-77
2022/11/10 03:39:04;;;;;;;11.73;3.22;;;;;;;8.56;100.00;101954.94;7291664;19;20354;-77
2022/11/10 03:41:34;;;;;;;16.58;3.63;;;;;;;8.58;100.00;101958.50;7294889;19;20299;-77
2022/11/10 03:44:04;;;;;;;25.55;3.97;;;;;;;8.65;100.00;101959.63;7291734;19;20011;-76
2022/11/10 03:46:34;;;;;;;13.45;3.15;;;;;;;8.66;100.00;101967.53;7289911;19;20266;-77
2022/11/10 03:49:03;;;;;;;12.07;3.17;;;;;;;8.64;100.00;101969.22;7289805;19;20443;-78
2022/11/10 03:51:36;;;;;;;17.10;4.57;;;;;;;8.62;100.00;101969.97;7293323;19;20426;-76
2022/11/10 03:54:06;;;;;;;19.10;3.97;;;;;;;8.60;100.00;101969.91;7294856;19;20204;-77
2022/11/10 03:56:36;;;;;;;12.20;3.42;;;;;;;8.63;100.00;101988.34;7295660;19;20299;-78
2022/11/10 03:59:06;;;;;;;19.42;4.85;;;;;;;8.69;100.00;101987.69;7298433;19;20184;-77
2022/11/10 04:01:36;;;;;;;15.45;4.15;;;;;;;8.75;100.00;101996.66;7297674;19;20233;-79
2022/11/10 04:08:57;;;;;;;19.48;4.60;;;;;;;8.73;100.00;101990.50;7299254;19;20279;-79
2022/11/10 04:09:41;;;;;;;12.20;5.45;;;;;;;8.77;100.00;101991.50;7291811;19;20098;-78
2022/11/10 04:17:35;;;;;;;16.63;3.95;;;;;;;8.75;100.00;102017.59;7295474;19;20303;-76
2022/11/10 04:20:06;;;;;;;16.95;4.03;;;;;;;8.71;100.00;102026.16;7294231;19;20203;-78
2022/11/10 04:25:21;;;;;;;18.90;4.03;;;;;;;8.72;100.00;102020.09;7297287;19;20375;-78
2022/11/10 04:27:51;;;;;;;17.23;3.72;;;;;;;8.79;100.00;102011.66;7290223;19;20241;-78
2022/11/10 04:30:21;;;;;;;19.25;4.03;;;;;;;8.82;100.00;102017.00;7290398;19;20239;-77
2022/11/10 04:32:50;;;;;;;17.33;4.82;;;;;;;8.84;100.00;102015.34;7296211;19;20188;-77
2022/11/10 04:35:20;;;;;;;16.85;4.57;;;;;;;8.79;100.00;102026.47;7295499;19;20195;-77
2022/11/10 04:37:52;;;;;;;13.35;4.22;;;;;;;8.76;100.00;102023.72;7289841;19;20010;-77
2022/11/10 04:40:22;;;;;;;21.38;4.78;;;;;;;8.83;100.00;102034.47;7289582;19;20287;-78
2022/11/10 04:42:52;;;;;;;16.45;4.82;;;;;;;8.85;100.00;102042.38;7295371;19;20192;-77
2022/11/10 04:45:21;;;;;;;14.30;4.45;;;;;;;8.83;100.00;102034.47;7295691;19;20291;-77
2022/11/10 04:47:51;;;;;;;12.30;4.90;;;;;;;8.86;100.00;102038.94;7293784;19;20389;-78
2022/11/10 04:50:21;;;;;;;14.90;5.45;;;;;;;8.82;100.00;102040.56;7290676;19;20027;-78
2022/11/10 04:52:53;;;;;;;14.48;4.13;;;;;;;8.74;100.00;102044.59;7294294;19;20298;-79
2022/11/10 04:55:23;;;;;;;14.60;4.45;;;;;;;8.77;100.00;102049.94;7294546;19;20010;-79
2022/11/10 04:57:53;;;;;;;13.40;4.25;;;;;;;8.84;100.00;102056.31;7298605;19;20681;-80
2022/11/10 05:00:23;;;;;;;13.10;4.32;;;;;;;8.80;100.00;102060.53;7288399;19;20038;-77
2022/11/10 05:02:53;;;;;;;17.23;4.60;;;;;;;8.82;100.00;102058.84;7291237;19;20007;-79
2022/11/10 05:05:22;;;;;;;18.25;4.85;;;;;;;8.86;100.00;102049.41;7294817;19;20422;-80
2022/11/10 05:07:55;;;;;;;19.88;5.65;;;;;;;8.84;100.00;102053.69;7290159;19;20016;-78
2022/11/10 05:10:25;;;;;;;16.38;5.10;;;;;;;8.83;100.00;102059.75;7288009;19;20196;-79
2022/11/10 05:12:55;;;;;;;15.43;4.60;;;;;;;8.85;100.00;102058.09;7288935;19;20405;-79
2022/11/10 05:15:26;;;;;;;17.80;4.85;;;;;;;8.84;100.00;102061.53;7291120;19;20177;-79
2022/11/10 05:17:56;;;;;;;18.42;5.35;;;;;;;8.83;100.00;102059.75;7292761;19;20324;-77
2022/11/10 05:20:27;;;;;;;14.38;4.97;;;;;;;8.81;100.00;102072.78;7286875;19;20303;-80
2022/11/10 05:25:43;;;;;;;11.93;4.13;;;;;;;8.76;100.00;102066.47;7289221;19;20489;-79
2022/11/10 05:28:15;;;;;;;20.25;5.40;;;;;;;8.82;100.00;102066.72;7289665;19;20300;-79
2022/11/10 05:30:45;;;;;;;13.55;4.63;;;;;;;8.81;100.00;102071.88;7284402;19;20082;-80
2022/11/10 05:33:15;;;;;;;15.93;4.43;;;;;;;8.71;100.00;102075.84;7288993;19;20036;-79
2022/11/10 05:35:44;;;;;;;16.77;4.95;;;;;;;8.67;100.00;102079.16;7298824;19;20196;-80
2022/11/10 05:38:17;;;;;;;16.25;4.47;;;;;;;8.62;100.00;102085.03;7289657;19;20284;-79
2022/11/10 05:40:46;;;;;;;15.18;4.50;;;;;;;8.64;100.00;102083.38;7289624;19;20413;-80
2022/11/10 05:43:17;;;;;;;22.80;5.40;;;;;;;8.64;100.00;102080.78;7291439;19;20489;-78
2022/11/10 05:45:46;;;;;;;13.63;4.65;;;;;;;8.65;100.00;102086.06;7294120;19;20052;-79
2022/11/10 05:48:16;;;;;;;8.93;4.32;;;;;;;8.72;100.00;102077.63;7287997;19;20011;-80
2022/11/10 05:50:46;;;;;;;17.15;5.13;;;;;;;8.64;100.00;102073.81;7288690;19;20017;-80
2022/11/10 05:53:19;;;;;;;16.48;5.32;;;;;;;8.63;100.00;102081.59;7292257;19;20200;-79
2022/11/10 05:55:49;;;;;;;16.77;4.93;;;;;;;8.63;100.00;102082.50;7299736;19;20302;-80
2022/11/10 05:58:19;;;;;;;15.52;4.47;;;;;;;8.72;100.00;102090.72;7296622;19;20469;-80
2022/11/10 06:00:49;;;;;;;18.00;5.25;;;;;;;8.74;100.00;102093.38;7292355;19;20276;-80
2022/11/10 06:03:20;;;;;;;20.48;4.90;;;;;;;8.73;100.00;102089.00;7290750;19;20345;-80
2022/11/10 06:05:52;;;;;;;14.20;4.80;;;;;;;8.68;100.00;102101.88;7292129;19;20286;-80
2022/11/10 06:08:24;;;;;;;16.45;5.15;;;;;;;8.72;100.00;102111.63;7290475;19;20098;-80
2022/11/10 06:10:54;;;;;;;12.90;3.92;;;;;;;8.70;100.00;102120.25;7286810;19;20532;-79
2022/11/10 06:13:24;;;;;;;17.85;5.20;;;;;;;8.80;100.00;102123.31;7288900;19;20395;-80
2022/11/10 06:15:54;;;;;;;20.38;4.70;;;;;;;8.76;100.00;102121.41;7298393;19;20014;-79
2022/11/10 06:18:24;;;;;;;22.88;5.75;;;;;;;8.82;100.00;102131.22;7291821;19;20561;-79
2022/11/10 06:20:53;;;;;;;12.65;4.07;;;;;;;8.84;100.00;102130.44;7298210;19;20311;-79
2022/11/10 06:23:26;;;;;;;18.45;5.05;;;;;;;8.85;100.00;102124.38;7289485;19;20335;-79
2022/11/10 06:25:55;;;;;;;16.67;4.40;;;;;;;8.98;100.00;102123.16;7296022;19;20306;-80
2022/11/10 06:28:25;;;;;;;12.50;3.67;;;;;;;9.02;100.00;102130.28;7298786;19;20513;-79
2022/11/10 06:30:58;;;;;;;12.85;4.68;;;;;;;9.05;100.00;102132.16;7292837;19;20395;-80
2022/11/10 06:33:27;;;;;;;11.67;4.10;;;;;;;9.07;100.00;102141.84;7301020;19;20374;-79
2022/11/10 06:35:57;;;;;;;12.50;3.95;;;;;;;9.03;100.00;102141.66;7302984;19;20026;-79
2022/11/10 06:38:30;;;;;;;14.82;4.88;;;;;;;9.03;100.00;102150.41;7301749;19;20022;-79
2022/11/10 06:41:00;;;;;;;14.45;3.80;;;;;;;9.06;100.00;102147.00;7297112;19;20469;-80
2022/11/10 06:43:30;;;;;;;14.38;3.88;;;;;;;9.12;100.00;102152.50;7291120;19;20010;-79
2022/11/10 06:45:59;;;;;;;13.75;4.15;;;;;;;9.10;100.00;102164.63;7290301;19;20538;-79
2022/11/10 06:48:29;;;;;;;15.27;3.92;;;;;;;9.13;100.00;102170.88;7291469;19;20192;-79
2022/11/10 06:51:01;;;;;;;15.25;4.85;;;;;;;9.15;100.00;102174.44;7292794;19;20234;-79
2022/11/10 06:53:34;;;;;;;15.13;4.40;;;;;;;9.15;100.00;102184.03;7284814;19;20185;-79
2022/11/10 06:56:03;;;;;;;21.70;4.90;;;;;;;9.09;100.00;102191.63;7294914;19;20477;-78
2022/11/10 06:58:33;;;;;;;15.32;4.05;;;;;;;9.11;100.00;102197.81;7286900;19;20546;-78
2022/11/10 07:01:03;;;;;;;15.95;4.22;;;;;;;9.14;100.00;102203.19;7292155;19;20403;-78
2022/11/10 07:03:34;;;;;;;12.40;4.55;;;;;;;9.11;100.00;102203.06;7292064;19;20835;-80
2022/11/10 07:06:13;;;;;;;19.17;5.80;;;;;;;9.26;100.00;102206.28;7287850;19;20011;-80
2022/11/10 07:08:45;;;;;;;16.13;5.03;;;;;;;9.28;100.00;102207.25;7297551;19;20511;-79
2022/11/10 07:11:16;;;;;;;16.58;4.40;;;;;;;9.27;100.00;102213.31;7293621;19;20494;-77
2022/11/10 07:13:45;;;;;;;17.33;4.53;;;;;;;9.26;100.00;102208.00;7295728;19;20199;-78
2022/11/10 07:16:15;;;;;;;19.05;4.45;;;;;;;9.30;100.00;102210.81;7293126;19;20230;-77
2022/11/10 07:18:52;;;;;;;18.55;5.55;;;;;;;9.30;100.00;102204.69;7295037;19;20280;-78
2022/11/10 07:21:22;;;;;;;13.65;4.32;;;;;;;9.39;100.00;102200.69;7297885;19;20299;-81
2022/11/10 07:23:54;;;;;;;17.90;4.50;;;;;;;9.37;100.00;102202.34;7296462;19;20217;-78
2022/11/10 07:26:24;;;;;;;22.60;4.80;;;;;;;9.44;100.00;102193.00;7292207;19;20389;-78
2022/11/10 07:28:54;;;;;;;12.63;4.65;;;;;;;9.48;100.00;102201.03;7292384;19;20584;-78
2022/11/10 07:31:23;;;;;;;12.43;3.83;;;;;;;9.60;100.00;102204.97;7299702;19;20026;-78
2022/11/10 07:33:54;;;;;;;13.43;3.80;;;;;;;9.67;100.00;102218.38;7299713;19;20280;-78
2022/11/10 07:36:27;;;;;;;17.88;4.15;;;;;;;9.68;100.00;102214.03;7296666;19;20268;-77
2022/11/10 07:39:00;;;;;;;14.98;4.05;;;;;;;9.74;100.00;102219.50;7293943;19;20614;-77
2022/11/10 07:41:30;;;;;;;20.30;4.37;;;;;;;9.75;100.00;102223.91;7298553;19;20019;-78
2022/11/10 07:44:00;;;;;;;16.98;4.20;;;;;;;9.71;100.00;102230.75;7297018;19;20624;-79
2022/11/10 07:46:30;;;;;;;15.98;3.85;;;;;;;9.75;100.00;102231.75;7295893;19;20273;-78
2022/11/10 07:49:00;;;;;;;12.80;4.00;;;;;;;9.80;100.00;102238.97;7298954;19;20359;-78
2022/11/10 07:51:30;;;;;;;16.52;4.30;;;;;;;9.93;100.00;102228.97;7309327;19;20242;-77
2022/11/10 07:54:02;;;;;;;17.67;4.38;;;;;;;9.98;100.00;102219.53;7298471;19;20018;-77
2022/11/10 07:56:32;;;;;;;18.75;4.25;;;;;;;10.06;100.00;102224.25;7299036;19;20056;-76
2022/11/10 07:59:02;;;;;;;20.35;4.45;;;;;;;10.12;100.00;102245.44;7292259;19;20252;-77
2022/11/10 08:01:35;;;;;;;11.02;3.38;;;;;;;10.21;100.00;102237.06;7297559;19;20297;-77
2022/11/10 08:04:05;;;;;;;17.38;4.13;;;;;;;10.24;100.00;102231.94;7297582;19;20386;-77
2022/11/10 08:06:35;;;;;;;15.18;4.30;;;;;;;10.29;100.00;102242.59;7286536;19;20252;-77
2022/11/10 08:09:08;;;;;;;15.30;4.05;;;;;;;10.34;100.00;102246.28;7298994;19;20040;-77
2022/11/10 08:15:03;;;;;;;14.00;3.95;;;;;;;10.45;100.00;102255.38;7367658;19;19994;-76
2022/11/10 08:17:33;;;;;;;19.50;4.03;;;;;;;10.48;100.00;102266.00;7329260;19;20392;-77
2022/11/10 08:20:03;;;;;;;15.23;4.30;;;;;;;10.54;100.00;102265.31;7296654;19;20422;-76
2022/11/10 08:22:33;;;;;;;19.95;4.30;;;;;;;10.56;100.00;102272.41;7284133;19;20387;-76
2022/11/10 08:25:06;;;;;;;13.60;4.80;;;;;;;10.59;100.00;102280.38;7301381;19;20479;-75
2022/11/10 08:27:36;;;;;;;12.82;3.67;;;;;;;10.65;100.00;102287.59;7294977;19;20296;-76
2022/11/10 08:30:07;;;;;;;12.60;4.28;;;;;;;10.63;100.00;102287.53;7291419;19;20326;-76
2022/11/10 08:32:38;;;;;;;17.20;3.97;;;;;;;10.64;100.00;102276.19;7295985;19;20038;-75
2022/11/10 08:35:10;;;;;;;11.65;3.53;;;;;;;10.63;100.00;102282.28;7292868;19;20382;-75
2022/11/10 08:37:39;;;;;;;15.25;3.97;;;;;;;10.64;100.00;102288.41;7290780;19;20618;-76
2022/11/10 08:40:14;;;;;;;15.35;4.30;;;;;;;10.63;100.00;102282.28;7296649;19;20212;-76
2022/11/10 08:42:44;;;;;;;14.77;3.97;;;;;;;10.71;100.00;102285.19;7293743;19;20291;-76
2022/11/10 08:45:14;;;;;;;16.30;5.50;;;;;;;10.79;100.00;102284.63;7296329;19;20303;-75
2022/11/10 08:47:46;;;;;;;13.38;3.72;;;;;;;10.91;100.00;102292.03;7317549;19;20385;-75
2022/11/10 08:50:16;;;;;;;14.68;5.32;;;;;;;10.87;100.00;102299.75;7376484;19;20022;-74
2022/11/10 08:52:46;;;;;;;13.85;3.45;;;;;;;10.91;100.00;102296.38;7374961;19;20007;-75
2022/11/10 08:55:18;;;;;;;15.50;4.05;;;;;;;11.02;100.00;102287.16;7379331;19;20021;-75
2022/11/10 08:57:48;;;;;;;18.20;4.68;;;;;;;11.08;100.00;102290.88;7378651;19;20011;-75
2022/11/10 09:00:21;;;;;;;14.95;4.07;;;;;;;11.18;100.00;102292.09;7376974;19;20073;-75
2022/11/10 09:02:51;;;;;;;17.43;3.87;;;;;;;11.22;100.00;102291.34;7379558;19;20455;-75
2022/11/10 09:05:20;;;;;;;14.43;3.95;;;;;;;11.26;100.00;102281.84;7379806;19;20520;-75
2022/11/10 09:07:52;;;;;;;9.98;3.67;;;;;;;11.31;100.00;102286.41;7377301;19;20422;-75
2022/11/10 09:10:24;;;;;;;12.68;3.55;;;;;;;11.47;100.00;102288.66;7380818;19;20087;-75
2022/11/10 09:12:54;;;;;;;16.67;4.97;;;;;;;11.56;100.00;102292.44;7379624;19;20073;-74
2022/11/10 09:15:23;;;;;;;12.05;3.53;;;;;;;11.63;100.00;102295.31;7379863;19;20011;-75
2022/11/10 09:17:53;;;;;;;14.45;3.75;;;;;;;11.73;100.00;102300.00;7379721;19;20082;-74
2022/11/10 09:20:22;;;;;;;16.88;4.35;;;;;;;11.84;100.00;102303.00;7377522;19;20267;-74
2022/11/10 09:22:52;;;;;;;14.45;3.85;;;;;;;11.88;100.00;102301.38;7377185;19;20003;-74
2022/11/10 09:25:25;;;;;;;14.65;3.80;;;;;;;11.98;100.00;102304.31;7374303;19;20018;-74
2022/11/10 09:27:55;;;;;;;14.57;3.75;;;;;;;12.09;100.00;102307.28;7376546;19;20021;-74
2022/11/10 09:30:25;;;;;;;14.55;3.75;;;;;;;12.16;100.00;102313.63;7374641;19;20034;-74
2022/11/10 09:32:55;;;;;;;13.95;3.10;;;;;;;12.23;100.00;102316.50;7380301;19;20315;-73
2022/11/10 09:35:25;;;;;;;10.98;3.28;;;;;;;12.30;100.00;102323.72;7373079;19;20051;-74
2022/11/10 09:37:55;;;;;;;17.40;4.53;;;;;;;12.40;100.00;102320.50;7374433;19;20114;-72
2022/11/10 09:40:34;;;;;;;12.40;3.40;;;;;;;12.50;100.00;102320.75;7370635;19;20015;-73
2022/11/10 09:43:07;;;;;;;17.63;4.70;;;;;;;12.63;100.00;102322.88;7378717;19;20014;-73
2022/11/10 09:45:42;;;;;;;20.08;3.72;;;;;;;12.79;100.00;102330.34;7378249;19;20034;-75
2022/11/10 09:48:20;;;;;;;13.80;4.30;;;;;;;12.83;100.00;102331.34;7376503;19;20006;-73
2022/11/10 09:50:54;;;;;;;11.55;3.40;;;;;;;12.88;100.00;102340.25;7380983;19;20368;-73
2022/11/10 09:53:28;;;;;;;11.80;3.45;;;;;;;12.98;100.00;102337.91;7374346;19;20495;-73
2022/11/10 09:56:04;;;;;;;17.75;4.68;;;;;;;13.03;100.00;102349.47;7381278;19;20397;-75
2022/11/10 09:58:39;;;;;;;11.48;4.22;;;;;;;13.23;100.00;102362.31;7379179;19;20159;-73
2022/11/10 10:01:22;;;;;;;14.52;4.20;;;;;;;13.28;100.00;102372.13;7380624;19;20018;-73
2022/11/10 10:04:02;;;;;;;12.27;3.73;;;;;;;13.30;100.00;102388.88;7377920;19;20010;-75
2022/11/10 10:06:36;;;;;;;15.88;4.45;;;;;;;13.17;100.00;102397.28;7378681;19;20078;-76
2022/11/10 10:09:35;;;;;;;12.95;3.75;;;;;;;13.07;100.00;102404.00;7378495;19;20019;-74
2022/11/10 10:12:22;;;;;;;14.35;3.63;;;;;;;13.17;100.00;102413.09;7377732;19;20021;-74
2022/11/10 10:15:06;;;;;;;12.00;3.80;;;;;;;13.20;100.00;102412.28;7380995;19;20590;-74
2022/11/10 10:17:43;;;;;;;13.98;4.55;;;;;;;13.25;100.00;102422.09;7372780;19;20482;-74
2022/11/10 10:20:21;;;;;;;13.73;3.90;;;;;;;13.22;100.00;102429.94;7375909;19;20010;-74
2022/11/10 10:23:03;;;;;;;8.48;3.00;;;;;;;13.25;100.00;102411.56;7376649;19;20007;-75
2022/11/10 10:25:34;;;;;;;14.95;4.03;;;;;;;13.33;100.00;102409.16;7377588;19;20578;-74
2022/11/10 10:28:15;;;;;;;10.55;3.60;;;;;;;13.28;100.00;102411.66;7378605;19;20014;-76
2022/11/10 10:30:46;;;;;;;16.23;3.20;;;;;;;13.29;100.00;102402.91;7378603;19;20007;-74
2022/11/10 10:33:20;;;;;;;13.68;3.45;;;;;;;13.30;100.00;102404.69;7378635;19;20021;-73
2022/11/10 10:35:51;;;;;;;17.30;4.03;;;;;;;13.38;100.00;102397.88;7377662;19;20591;-74
2022/11/10 10:38:32;;;;;;;11.47;3.27;;;;;;;13.27;100.00;102404.59;7372883;19;20011;-74
2022/11/10 10:41:15;;;;;;;13.63;3.83;;;;;;;13.34;100.00;102406.56;7381778;19;20506;-74
2022/11/10 10:43:58;;;;;;;11.30;3.55;;;;;;;13.37;100.00;102411.91;7382230;19;20014;-74
2022/11/10 10:46:31;;;;;;;15.00;3.92;;;;;;;13.35;100.00;102421.50;7380930;19;20086;-76
2022/11/10 10:49:10;;;;;;;11.30;3.67;;;;;;;13.37;100.00;102427.72;7378759;19;20010;-76
2022/11/10 10:52:08;;;;;;;19.42;4.00;;;;;;;13.37;100.00;102427.72;7379163;19;20014;-76
2022/11/10 10:54:40;;;;;;;14.57;3.53;;;;;;;13.24;100.00;102435.25;7378343;19;20006;-75
2022/11/10 10:57:22;;;;;;;15.70;3.95;;;;;;;13.22;100.00;102437.84;7376126;19;20010;-76
2022/11/10 11:00:16;;;;;;;16.25;3.83;;;;;;;13.26;100.00;102429.16;7376047;19;20085;-77
2022/11/10 11:03:03;;;;;;;12.68;3.13;;;;;;;13.25;100.00;102437.03;7380304;19;20015;-77
2022/11/10 11:05:34;;;;;;;16.95;3.83;;;;;;;13.16;100.00;102436.72;7380114;19;20561;-77
2022/11/10 11:08:04;;;;;;;10.40;3.22;;;;;;;13.19;100.00;102435.13;7380550;19;20022;-77
2022/11/10 11:10:36;;;;;;;11.43;3.20;;;;;;;13.26;100.00;102454.63;7378948;19;20047;-77
2022/11/10 11:13:17;;;;;;;13.90;3.58;;;;;;;13.37;100.00;102447.91;7381553;19;20014;-75
2022/11/10 11:15:58;;;;;;;9.60;3.20;;;;;;;13.40;100.00;102454.16;7381637;19;20010;-75
2022/11/10 11:18:31;;;;;;;13.25;4.05;;;;;;;13.40;100.00;102463.78;7380644;19;20010;-75
2022/11/10 11:21:07;;;;;;;13.52;3.60;;;;;;;13.44;100.00;102464.78;7382081;19;20018;-75
2022/11/10 11:23:48;;;;;;;11.20;3.50;;;;;;;13.45;100.00;102466.56;7381465;19;20043;-76
2022/11/10 11:26:24;;;;;;;14.02;3.40;;;;;;;13.51;100.00;102477.28;7381847;19;20010;-76
2022/11/10 11:29:04;;;;;;;19.02;3.85;;;;;;;13.44;100.00;102478.84;7378812;19;20015;-77
2022/11/10 11:31:44;;;;;;;16.38;3.60;;;;;;;13.47;100.00;102481.56;7375967;19;20011;-77
2022/11/10 11:34:19;;;;;;;11.32;3.35;;;;;;;13.48;100.00;102482.47;7380424;19;20019;-77
2022/11/10 11:36:57;;;;;;;12.25;3.10;;;;;;;13.42;100.00;102485.81;7377834;19;20465;-78
2022/11/10 11:39:43;;;;;;;12.25;3.75;;;;;;;13.37;100.00;102476.91;7375450;19;20015;-78
2022/11/10 11:42:30;;;;;;;11.40;3.30;;;;;;;13.43;100.00;102474.44;7376053;19;20010;-77
2022/11/10 11:45:12;;;;;;;12.30;3.05;;;;;;;13.52;100.00;102469.38;7381043;19;20021;-77
2022/11/10 11:47:58;;;;;;;10.98;3.47;;;;;;;13.59;100.00;102475.69;7385473;19;20050;-75
2022/11/10 11:50:32;;;;;;;13.02;3.67;;;;;;;13.61;100.00;102490.72;7379846;19;20015;-77
2022/11/10 11:53:13;;;;;;;11.35;3.13;;;;;;;13.77;100.00;102502.56;7378444;19;20006;-77
2022/11/10 11:55:59;;;;;;;9.55;3.33;;;;;;;13.85;100.00;102500.13;7383010;19;20018;-79
2022/11/10 11:58:41;;;;;;;11.15;3.75;;;;;;;13.67;100.00;102490.88;7379620;19;20300;-77